Salt Lake City, Utah
Traffic Map
Current Weather Conditions
Salt Lake City, Utah
Clear
Clear
-1°
Feels Like: -4°
Wind Chill: -4° Ceiling: Unl
Heat Index: -1° Visibility: 10mi
Dew Point: -2° Wind: 6mph
Humidity: 89% Direction: 110° (ESE)
Pressure: 30.16in Gusts: 0mph
Raw Report DataKSLC 010653Z 11005KT 10SM CLR M01/M02 A3016 RMK AO2 SLP217 T10061022 400831011
Traffic Incident Summary
Active as of:
Severity:
Category:
InformationThere was an issue retrieving the traffic information for this location. Please try a different location or try again shortly.
Advertisements
Track Severe Weather on mobile